Tiempo atmosférico en la estación meteorológica de Ledesma, Salamanca (790 m.)



Fecha
DESCASC
Temp. máxima en grados centígrados (hora)
DESCASC
Temp. mínima en grados centígrados (hora)
DESCASC
Temp. media en grados centígrados
DESCASC
Racha de viento máxima en m/sg (hora)
DESCASC
Velocidad máxima media en intervalos de 10 minutos(hora)
DESCASC
Precipitaciones diarias en mm
DESCASC
Precipitaciones de 00:00 a 06:00 en mm
DESCASC
Precipitaciones de 06:00 a 12:00 en mm
DESCASC
Precipitaciones de 12:00 a 18:00 en mm
DESCASC
Precipitaciones de 18:00 a 24:00 en mm
DESCASC
16-06-2019 27.4 (19:00) 6.5 (04:20) 16.9 8.61 (17:30) 4.72 (18:10) 0 0 0 0 0
15-06-2019 22.5 (18:20) 3.3 (07:10) 12.9 7.5 (19:40) 3.61 (19:40) 0 0 0 0 0
14-06-2019 19.1 (18:40) 1.8 (06:50) 10.5 12.78 (17:40) 6.67 (17:40) 0 0 0 0 0
13-06-2019 22.2 (18:40) 1.3 (00:00) 11.8 10 (16:10) 5.28 (16:10) 0 0 0 0 0
12-06-2019 21.4 (17:40) 5.5 (00:00) 13.4 9.17 (02:30) 6.11 (09:10) 0 0 0 0 0
11-06-2019 19.8 (17:00) 10.5 (00:00) 15.1 11.67 (12:00) 6.67 (10:20) 0 0 0 0 0
10-06-2019 22.4 (18:30) 4.3 (00:00) 13.3 9.72 (20:00) 4.72 (19:00) 0 0 0 0 0
09-06-2019 21.3 (16:30) 4.4 (00:00) 12.8 10 (20:20) 5.28 (16:00) 0 0 0 0 0
08-06-2019 24.1 (17:30) 5.3 (00:00) 14.7 11.94 (14:40) 5 (08:50) 0 0 0 0 0
07-06-2019 17.1 (19:40) 5.8 (00:00) 11.5 10.28 (00:30) 5 (01:40) 0.4 0.4 0 0 0
06-06-2019 19.4 (17:30) 0.3 (00:00) 9.8 23.33 (20:00) 11.67 (20:20) 4.6 0 0 0 4.6
05-06-2019 16.4 (17:20) 7.2 (00:00) 11.8 11.67 (16:00) 6.94 (16:00) 0 0 0 0 0
04-06-2019 21.8 (15:00) 10.2 (00:00) 16 11.67 (15:40) 6.94 (15:40) 0 0 0 0 0
03-06-2019 28.6 (17:40) 10.3 (00:00) 19.5 11.39 (17:20) 6.11 (17:10) 0 0 0 0 0
02-06-2019 30.6 (16:30) 8.7 (00:00) 19.7 9.72 (14:10) 5.28 (19:20) 0 0 0 0 0
01-06-2019 32.8 (17:10) 7.6 (00:00) 20.2 7.22 (15:10) 3.61 (17:50) 0 0 0 0 0
31-05-2019 31.4 (19:30) 11.6 (00:00) 21.5 9.72 (06:50) 7.22 (06:40) 0 0 0 0 0
30-05-2019 28.2 (18:10) 6.4 (00:00) 17.3 8.89 (17:10) 5.56 (16:50) 0 0 0 0 0
29-05-2019 24 (17:50) 7.4 (00:00) 15.7 10 (10:20) 6.39 (10:00) 0 0 0 0 0
28-05-2019 23.5 (17:20) 7.4 (00:00) 15.5 11.67 (22:20) 7.5 (00:30) 0 0 0 0 0
27-05-2019 26.7 (17:30) 9.6 (00:00) 18.2 10.28 (23:59) 6.67 (23:30) 0.2 0 0 0.2 0
26-05-2019 26.7 (19:20) 4.4 (00:00) 15.6 8.89 (15:40) 4.44 (17:00) 0 0 0 0 0
25-05-2019 21.7 (17:20) 5.5 (00:00) 13.6 10.56 (00:10) 6.11 (00:10) 0 0 0 0 0
24-05-2019 21.9 (17:10) 7.1 (00:00) 14.5 12.5 (22:00) 7.78 (10:00) 0 0 0 0 0
23-05-2019 24.4 (17:10) 7.6 (00:00) 16 10.28 (20:10) 5.28 (16:00) 0 0 0 0 0
22-05-2019 25.9 (18:10) 5.7 (00:00) 15.8 8.89 (06:30) 6.39 (06:30) 0 0 0 0 0
21-05-2019 22.8 (19:40) 2.1 (06:30) 12.4 6.39 (11:10) 3.61 (09:00) 0 0 0 0 0

Gráficas

Temp. máximas Temp. mínimas Temp. medias Precipitaciones Rachas de viento máximas Velocidades máximas media en intervalos de 10 minutos

Datos horarios

Fecha y hora oficial Temperatura (ºC) Velocidad del viento (km/h) Dirección del viento Racha (km/h) Dirección de racha Precipitación (mm) Presión (hPa) Tendencia (hPa) Humedad (%)
2019-06-19 23:00:00 18.3 6 Noroeste 17 Oeste 0 -- -- 63
2019-06-19 22:00:00 19 11 Oeste 25 Oeste 0 -- -- 62
2019-06-19 21:00:00 20.8 10 Noroeste 29 Oeste 0 -- -- 52
2019-06-19 20:00:00 22.2 19 Oeste 29 Oeste 0 -- -- 49
2019-06-19 19:00:00 22.2 13 Noroeste 32 Oeste 0 -- -- 50
2019-06-19 18:00:00 21.6 15 Oeste 34 Oeste 0 -- -- 52
2019-06-19 17:00:00 21.2 18 Oeste 39 Oeste 0 -- -- 54
2019-06-19 16:00:00 19.4 15 Oeste 30 Oeste 0 -- -- 65
2019-06-19 15:00:00 17.8 20 Sudoeste -- -- -- -- -- 75
2019-06-19 14:00:00 -- -- -- -- -- -- -- -- --
2019-06-19 13:00:00 -- -- -- -- -- -- -- -- --
2019-06-19 12:00:00 -- -- -- -- -- -- -- -- --
2019-06-19 11:00:00 -- -- -- -- -- -- -- -- --
2019-06-19 10:00:00 -- -- -- -- -- -- -- -- --
2019-06-19 09:00:00 -- -- -- -- -- -- -- -- --
2019-06-19 08:00:00 -- -- -- -- -- -- -- -- --
2019-06-19 07:00:00 -- -- -- -- -- -- -- -- --
2019-06-19 06:00:00 -- -- -- -- -- -- -- -- --
2019-06-19 05:00:00 -- -- -- -- -- -- -- -- --
2019-06-19 04:00:00 -- -- -- -- -- -- -- -- --
2019-06-19 03:00:00 -- -- -- -- -- -- -- -- --
2019-06-19 02:00:00 -- -- -- -- -- -- -- -- --
2019-06-19 01:00:00 -- -- -- -- -- -- -- -- --
2019-06-19 00:00:00 -- -- -- -- -- -- -- -- --
2019-06-18 23:00:00 -- -- -- -- -- -- -- -- --
2019-06-18 22:00:00 -- -- -- -- -- -- -- -- --
2019-06-18 21:00:00 -- -- -- -- -- -- -- -- --
2019-06-18 20:00:00 -- -- -- -- -- -- -- -- --
2019-06-18 19:00:00 20.8 27 Sudoeste 50 Sudoeste 0 -- -- 53
2019-06-18 18:00:00 21.8 30 Sudoeste 49 Sudoeste 0 -- -- 48
2019-06-18 17:00:00 22.5 31 Sudoeste 52 Sudoeste 0 -- -- 45
2019-06-18 16:00:00 19.8 31 Sudoeste 54 Sudoeste 0 -- -- 60
2019-06-18 15:00:00 21.9 25 Sudoeste 46 Sudoeste 0 -- -- 52
2019-06-18 14:00:00 22.9 28 Sudoeste 49 Sudoeste 0 -- -- 45
2019-06-18 13:00:00 22.8 28 Sudoeste 48 Sudoeste 0 -- -- 40
2019-06-18 12:00:00 21.9 24 Sudoeste 44 Sudoeste 0 -- -- 35
2019-06-18 11:00:00 20.9 23 Sudoeste 37 Sudoeste 0 -- -- 29
2019-06-18 10:00:00 19 23 Sudoeste 38 Sudoeste 0 -- -- 26
2019-06-18 09:00:00 17.6 19 Sudoeste 30 Sudoeste 0 -- -- 35
2019-06-18 08:00:00 15.3 14 Sudoeste 21 Sudoeste 0 -- -- 51
2019-06-18 07:00:00 12.8 9 Sudoeste 16 Sudoeste 0 -- -- 60
2019-06-18 06:00:00 12.9 3 Sur 16 Sudoeste 0 -- -- 56
2019-06-18 05:00:00 13.7 9 Sudoeste 15 Sudoeste 0 -- -- 52
2019-06-18 04:00:00 13.8 5 Sur 10 Oeste 0 -- -- 53
2019-06-18 03:00:00 14.5 6 Sudeste 10 Sudeste 0 -- -- 51
2019-06-18 02:00:00 13.1 5 Sudeste 8 Sudeste 0 -- -- 54
2019-06-18 01:00:00 14.2 0 Calma 11 Este 0 -- -- 52
2019-06-18 00:00:00 18.4 9 Este 16 Nordeste 0 -- -- 39
2019-06-17 23:00:00 19.8 7 Nordeste 26 Oeste 0 -- -- 38
2019-06-17 22:00:00 19.8 7 Norte 22 Norte 0 -- -- 35
2019-06-17 21:00:00 22.2 8 Noroeste 18 Noroeste 0 -- -- 35
2019-06-17 20:00:00 23.9 10 Noroeste 22 Oeste 0 -- -- 32
2019-06-17 19:00:00 25.1 14 Oeste 33 Sudoeste 0 -- -- 28
2019-06-17 18:00:00 25.8 19 Oeste 39 Oeste 0 -- -- 26
2019-06-17 17:00:00 26.4 16 Oeste 33 Oeste 0 -- -- 23
2019-06-17 16:00:00 26.5 16 Oeste 35 Sudoeste 0 -- -- 23
2019-06-17 15:00:00 26.2 19 Sudoeste 38 Sudoeste 0 -- -- 22
2019-06-17 14:00:00 27.2 21 Sudoeste 30 Sudoeste 0 -- -- 26
2019-06-17 13:00:00 26 17 Sudoeste 34 Sudoeste 0 -- -- 27
2019-06-17 12:00:00 24 18 Sudoeste 32 Sudoeste 0 -- -- 31
2019-06-17 11:00:00 22.3 18 Sudoeste 26 Sudoeste 0 -- -- 36
2019-06-17 10:00:00 19.4 7 Sur 12 Sur 0 -- -- 59
2019-06-17 09:00:00 15.9 5 Sudeste 8 Sur 0 -- -- 69
2019-06-17 08:00:00 11.3 2 Este 5 Este 0 -- -- 90
2019-06-17 07:00:00 7.9 2 Este 3 Este 0 -- -- 92
2019-06-17 06:00:00 6.4 2 Este 3 Este 0 -- -- 91
2019-06-17 05:00:00 7.3 0 Calma 2 Nordeste 0 -- -- 89
2019-06-17 04:00:00 8.2 0 Calma 2 Sudoeste 0 -- -- 85
2019-06-17 03:00:00 9.8 0 Calma 4 Sudoeste 0 -- -- 73
2019-06-17 02:00:00 14 2 Sudoeste 10 Oeste 0 -- -- 61
2019-06-17 01:00:00 13.2 3 Oeste 7 Oeste 0 -- -- 57
2019-06-17 00:00:00 12.1 4 Norte 6 Oeste 0 -- -- 59
2019-06-16 23:00:00 16.8 3 Noroeste 11 Oeste 0 -- -- 40
2019-06-16 22:00:00 21.9 4 Sudoeste 16 Oeste 0 -- -- 27
2019-06-16 21:00:00 25.1 9 Oeste 19 Oeste 0 -- -- 24
2019-06-16 20:00:00 26.2 11 Oeste 27 Sudoeste 0 -- -- 22
2019-06-16 19:00:00 27.4 13 Oeste 28 Oeste 0 -- -- 21
2019-06-16 18:00:00 26.9 12 Oeste 31 Sudoeste 0 -- -- 23
2019-06-16 17:00:00 27 16 Sudoeste 29 Sudoeste 0 -- -- 22
2019-06-16 16:00:00 26.4 12 Sudoeste 26 Sudoeste 0 -- -- 23
2019-06-16 15:00:00 25.7 10 Oeste 25 Oeste 0 -- -- 26
2019-06-16 14:00:00 25 14 Sudoeste 24 Sudoeste 0 -- -- 26
2019-06-16 13:00:00 23.6 10 Oeste 23 Sudoeste 0 -- -- 29
2019-06-16 12:00:00 22 4 Sudoeste 13 Sudeste 0 -- -- 37
2019-06-16 11:00:00 18.8 7 Este 16 Nordeste 0 -- -- 49
2019-06-16 10:00:00 15.2 8 Nordeste 13 Nordeste 0 -- -- 62
2019-06-16 09:00:00 12.6 7 Este 16 Nordeste 0 -- -- 71
2019-06-16 08:00:00 10 8 Este 15 Este 0 -- -- 80
2019-06-16 07:00:00 7.4 2 Sudeste 9 Este 0 -- -- 79
2019-06-16 06:00:00 9.7 4 Este 18 Nordeste 0 -- -- 71
2019-06-16 05:00:00 10 9 Nordeste 16 Nordeste 0 -- -- 73
2019-06-16 04:00:00 6.8 0 Calma 2 Nordeste 0 -- -- 78
2019-06-16 03:00:00 7.5 0 Calma 5 Norte 0 -- -- 76
2019-06-16 02:00:00 9.3 3 Norte 9 Norte 0 -- -- 67
2019-06-16 01:00:00 13.3 6 Norte 12 Norte 0 -- -- 56
2019-06-16 00:00:00 12.6 6 Norte 9 Norte 0 -- -- 55
2019-06-15 23:00:00 10 4 Norte 5 Norte 0 -- -- 61
2019-06-15 22:00:00 17.8 4 Norte 13 Noroeste 0 -- -- 39
2019-06-15 21:00:00 20.9 8 Noroeste 21 Oeste 0 -- -- 34
2019-06-15 20:00:00 22 6 Noroeste 27 Oeste 0 -- -- 33
2019-06-15 19:00:00 22.3 6 Noroeste 22 Oeste 0 -- -- 32
2019-06-15 18:00:00 22 12 Noroeste 26 Oeste 0 -- -- 33
2019-06-15 17:00:00 21.7 11 Oeste 24 Oeste 0 -- -- 35
2019-06-15 16:00:00 21.2 8 Noroeste 19 Noroeste 0 -- -- 36
2019-06-15 15:00:00 19.9 8 Norte 20 Noroeste 0 -- -- 37
2019-06-15 14:00:00 18.5 8 Noroeste 21 Oeste 0 -- -- 42
2019-06-15 13:00:00 17.1 6 Oeste 20 Sudoeste 0 -- -- 40
2019-06-15 12:00:00 16.3 6 Oeste 17 Oeste 0 -- -- 50
2019-06-15 11:00:00 14.3 6 Oeste 17 Oeste 0 -- -- 59
2019-06-15 10:00:00 12.8 8 Oeste 17 Noroeste 0 -- -- 66
2019-06-15 09:00:00 10.2 5 Oeste 10 Oeste 0 -- -- 78
2019-06-15 08:00:00 6.6 2 Oeste 5 Nordeste 0 -- -- 94
2019-06-15 07:00:00 4 2 Sudeste 9 Oeste 0 -- -- 92
2019-06-15 06:00:00 5.2 5 Sudoeste 9 Oeste 0 -- -- 89
2019-06-15 05:00:00 4.3 4 Oeste 7 Oeste 0 -- -- 91
2019-06-15 04:00:00 6.1 0 Calma 7 Sur 0 -- -- 81
2019-06-15 03:00:00 7.8 3 Sudoeste 10 Sudoeste 0 -- -- 79
2019-06-15 02:00:00 9.3 5 Oeste 19 Oeste 0 -- -- 73
2019-06-15 01:00:00 10.4 12 Oeste 22 Oeste 0 -- -- 69
2019-06-15 00:00:00 11.6 11 Oeste 24 Oeste 0 -- -- 64
2019-06-14 23:00:00 12.6 16 Oeste 27 Noroeste 0 -- -- 59
2019-06-14 22:00:00 13.4 14 Oeste 34 Oeste 0 -- -- 55
2019-06-14 21:00:00 15 20 Oeste 41 Oeste 0 -- -- 45
2019-06-14 20:00:00 16.9 21 Oeste 37 Oeste 0 -- -- 40
2019-06-14 19:00:00 18.4 19 Oeste 41 Oeste 0 -- -- 36
2019-06-14 18:00:00 18.2 20 Oeste 46 Oeste 0 -- -- 37
2019-06-14 17:00:00 18.1 18 Oeste 39 Oeste 0 -- -- 40
2019-06-14 16:00:00 18.3 22 Oeste 39 Oeste 0 -- -- 41
2019-06-14 15:00:00 17.9 21 Oeste 36 Oeste 0 -- -- 43
2019-06-14 14:00:00 18.1 20 Oeste 36 Sudoeste 0 -- -- 43
2019-06-14 13:00:00 17.5 10 Oeste 28 Oeste 0 -- -- 43
2019-06-14 12:00:00 16.5 10 Oeste 21 Noroeste 0 -- -- 51
2019-06-14 11:00:00 14.9 6 Oeste 15 Oeste 0 -- -- 57
2019-06-14 10:00:00 13 6 Noroeste 14 Noroeste 0 -- -- 63
2019-06-14 09:00:00 11.3 3 Norte 9 Nordeste 0 -- -- 73
2019-06-14 08:00:00 5.8 0 Calma 5 Noroeste 0 -- -- 94
2019-06-14 07:00:00 1.8 2 Este 3 Este 0 -- -- 93
2019-06-14 06:00:00 3.6 0 Calma 5 Nordeste 0 -- -- 85
2019-06-14 05:00:00 2.8 2 Norte 5 Nordeste 0 -- -- 90
2019-06-14 04:00:00 3.8 3 Nordeste 11 Nordeste 0 -- -- 84
2019-06-14 03:00:00 4.5 0 Calma 5 Noroeste 0 -- -- 80
2019-06-14 02:00:00 7.5 2 Noroeste 8 Norte 0 -- -- 69
2019-06-14 01:00:00 11.6 4 Norte 10 Noroeste 0 -- -- 57
2019-06-14 00:00:00 13.1 3 Norte 11 Noroeste 0 -- -- 51
2019-06-13 23:00:00 14.8 5 Norte 14 Noroeste 0 -- -- 45
2019-06-13 22:00:00 17.1 7 Noroeste 23 Noroeste 0 -- -- 40
2019-06-13 21:00:00 19.7 12 Noroeste 28 Oeste 0 -- -- 35
2019-06-13 20:00:00 21.3 15 Oeste 30 Oeste 0 -- -- 31
2019-06-13 19:00:00 22.1 13 Oeste 31 Oeste 0 -- -- 29
2019-06-13 18:00:00 21.7 17 Oeste 34 Oeste 0 -- -- 30
2019-06-13 17:00:00 21.6 18 Oeste 36 Oeste 0 -- -- 31
2019-06-13 16:00:00 21.2 17 Oeste 32 Sudoeste 0 -- -- 33
2019-06-13 15:00:00 20.7 15 Oeste 32 Sudoeste 0 -- -- 31
2019-06-13 14:00:00 19.4 13 Oeste 27 Oeste 0 -- -- 33
2019-06-13 13:00:00 18 10 Oeste 22 Oeste 0 -- -- 40
2019-06-13 12:00:00 16.4 8 Sudoeste 20 Oeste 0 -- -- 44
2019-06-13 11:00:00 14.9 6 Nordeste 13 Norte 0 -- -- 53
2019-06-13 10:00:00 12.7 4 Oeste 12 Nordeste 0 -- -- 64
2019-06-13 09:00:00 10.6 6 Nordeste 12 Nordeste 0 -- -- 73
2019-06-13 08:00:00 5.3 0 Calma 5 Nordeste 0 -- -- 89
2019-06-13 07:00:00 1.6 0 Calma 4 Norte 0 -- -- 87
2019-06-13 06:00:00 2.1 0 Calma 5 Noroeste 0 -- -- 85
2019-06-13 05:00:00 6.1 3 Noroeste 7 Norte 0 -- -- 72
2019-06-13 04:00:00 7.2 5 Norte 13 Nordeste 0 -- -- 68
2019-06-13 03:00:00 3.9 2 Noroeste 6 Noroeste 0 -- -- 76
2019-06-13 02:00:00 5.5 2 Norte 5 Noroeste 0 -- -- 72
2019-06-13 01:00:00 7.3 3 Norte 8 Norte 0 -- -- 61
2019-06-13 00:00:00 12.3 7 Norte 12 Nordeste 0 -- -- 45
2019-06-12 23:00:00 13.5 5 Norte 12 Norte 0 -- -- 40
2019-06-12 22:00:00 16 6 Norte 17 Oeste 0 -- -- 32
2019-06-12 21:00:00 19.1 10 Noroeste 25 Noroeste 0 -- -- 25
2019-06-12 20:00:00 20.4 9 Noroeste 26 Noroeste 0 -- -- 26
2019-06-12 19:00:00 21.2 11 Noroeste 26 Oeste 0 -- -- 24
2019-06-12 18:00:00 21.1 11 Noroeste 29 Oeste 0 -- -- 25
2019-06-12 17:00:00 21 7 Noroeste 25 Noroeste 0 -- -- 25
2019-06-12 16:00:00 20.2 5 Oeste 22 Oeste 0 -- -- 27
2019-06-12 15:00:00 18.9 7 Oeste 21 Oeste 0 -- -- 29
2019-06-12 14:00:00 18.1 6 Sudoeste 21 Sudoeste 0 -- -- 31
2019-06-12 13:00:00 16.5 6 Nordeste 18 Sudeste 0 -- -- 35
2019-06-12 12:00:00 15 5 Sudoeste 19 Este 0 -- -- 39
2019-06-12 11:00:00 13.7 10 Nordeste 23 Este 0 -- -- 42
2019-06-12 10:00:00 12 16 Este 32 Nordeste 0 -- -- 49
2019-06-12 09:00:00 10.1 18 Nordeste 30 Este 0 -- -- 56
2019-06-12 08:00:00 7.6 6 Este 13 Nordeste 0 -- -- 66
2019-06-12 07:00:00 5.7 4 Sudeste 10 Este 0 -- -- 70
2019-06-12 06:00:00 5.8 3 Sudeste 12 Sur 0 -- -- 67
2019-06-12 05:00:00 7.8 9 Este 31 Nordeste 0 -- -- 62
2019-06-12 04:00:00 8.3 18 Nordeste 29 Nordeste 0 -- -- 61
2019-06-12 03:00:00 8.8 18 Nordeste 33 Este 0 -- -- 59
2019-06-12 02:00:00 9.3 18 Nordeste 27 Nordeste 0 -- -- 58
2019-06-12 01:00:00 9.6 12 Nordeste 23 Nordeste 0 -- -- 57
2019-06-12 00:00:00 11.3 13 Nordeste 29 Nordeste 0 -- -- 50
2019-06-11 23:00:00 13.3 17 Este 27 Nordeste 0 -- -- 44
2019-06-11 22:00:00 14.7 15 Este 22 Este 0 -- -- 39
2019-06-11 21:00:00 17.4 9 Nordeste 25 Nordeste 0 -- -- 30
2019-06-11 20:00:00 18.6 15 Nordeste 26 Nordeste 0 -- -- 29
2019-06-11 19:00:00 19.5 15 Norte 36 Nordeste 0 -- -- 26
2019-06-11 18:00:00 19.6 14 Nordeste 34 Nordeste 0 -- -- 26
2019-06-11 17:00:00 19.8 15 Norte 35 Nordeste 0 -- -- 27
2019-06-11 16:00:00 19.1 14 Nordeste 40 Nordeste 0 -- -- 27
2019-06-11 15:00:00 18.7 12 Norte 37 Nordeste 0 -- -- 27
2019-06-11 14:00:00 18 22 Nordeste 35 Nordeste 0 -- -- 31
2019-06-11 13:00:00 16 19 Nordeste 36 Nordeste 0 -- -- 40
2019-06-11 12:00:00 15.7 21 Nordeste 42 Nordeste 0 -- -- 41
2019-06-11 11:00:00 14.5 18 Nordeste 36 Nordeste 0 -- -- 47
2019-06-11 10:00:00 13.6 24 Nordeste 33 Nordeste 0 -- -- 50
2019-06-11 09:00:00 11.8 16 Nordeste 27 Nordeste 0 -- -- 57
2019-06-11 08:00:00 10.7 17 Nordeste 23 Nordeste 0 -- -- 59
2019-06-11 07:00:00 10.6 12 Nordeste 19 Nordeste 0 -- -- 62
2019-06-11 06:00:00 11.1 7 Norte 20 Norte 0 -- -- 68
2019-06-11 05:00:00 11.4 8 Norte 17 Norte 0 -- -- 67
2019-06-11 04:00:00 12.1 10 Norte 21 Noroeste 0 -- -- 64
2019-06-11 03:00:00 12.6 6 Norte 24 Noroeste 0 -- -- 61
2019-06-11 02:00:00 13.3 11 Norte 21 Noroeste 0 -- -- 59
2019-06-11 01:00:00 14.1 8 Noroeste 27 Noroeste 0 -- -- 55
2019-06-11 00:00:00 14.8 12 Noroeste 32 Noroeste 0 -- -- 53
2019-06-10 23:00:00 15.8 16 Noroeste 33 Norte 0 -- -- 52
2019-06-10 22:00:00 17.4 12 Noroeste 32 Noroeste 0 -- -- 46
2019-06-10 21:00:00 19.2 14 Noroeste 29 Noroeste 0 -- -- 35
2019-06-10 20:00:00 21.1 15 Noroeste 35 Noroeste 0 -- -- 28
2019-06-10 19:00:00 21.8 17 Noroeste 34 Noroeste 0 -- -- 27
2019-06-10 18:00:00 22.2 9 Noroeste 31 Oeste 0 -- -- 28
2019-06-10 17:00:00 22.1 10 Noroeste 28 Noroeste 0 -- -- 28
2019-06-10 16:00:00 21.5 11 Noroeste 30 Oeste 0 -- -- 31
2019-06-10 15:00:00 19.8 14 Oeste 30 Oeste 0 -- -- 38
2019-06-10 14:00:00 19 8 Oeste 22 Sur 0 -- -- 32
2019-06-10 13:00:00 17.9 7 Oeste 18 Oeste 0 -- -- 46
2019-06-10 12:00:00 17 4 Norte 14 Norte 0 -- -- 52
2019-06-10 11:00:00 15.2 6 Nordeste 14 Nordeste 0 -- -- 59
2019-06-10 10:00:00 13.1 7 Nordeste 15 Nordeste 0 -- -- 70
2019-06-10 09:00:00 10.8 9 Nordeste 13 Nordeste 0 -- -- 83
2019-06-10 08:00:00 7.8 6 Nordeste 10 Nordeste 0 -- -- 93
2019-06-10 07:00:00 4.4 5 Nordeste 5 Nordeste 0 -- -- 94
2019-06-10 06:00:00 4.8 3 Este 6 Este 0 -- -- 94
2019-06-10 05:00:00 6.3 4 Este 7 Este 0 -- -- 87
2019-06-10 04:00:00 6.3 5 Este 8 Nordeste 0 -- -- 89
2019-06-10 03:00:00 8.3 6 Norte 10 Norte 0 -- -- 78
2019-06-10 02:00:00 10.4 5 Norte 11 Nordeste 0 -- -- 72
2019-06-10 01:00:00 12.1 6 Norte 15 Noroeste 0 -- -- 68
2019-06-10 00:00:00 13.5 8 Noroeste 20 Noroeste 0 -- -- 60
2019-06-09 23:00:00 14.4 8 Noroeste 18 Noroeste 0 -- -- 57
2019-06-09 22:00:00 15.9 8 Noroeste 28 Oeste 0 -- -- 52
2019-06-09 21:00:00 18.1 13 Noroeste 36 Noroeste 0 -- -- 47
2019-06-09 20:00:00 19.5 17 Noroeste 32 Noroeste 0 -- -- 43
2019-06-09 19:00:00 20.7 15 Noroeste 34 Noroeste 0 -- -- 40
2019-06-09 18:00:00 20.4 14 Noroeste 32 Oeste 0 -- -- 38
2019-06-09 17:00:00 20.8 18 Noroeste 31 Oeste 0 -- -- 37
2019-06-09 16:00:00 20.8 19 Oeste 31 Noroeste 0 -- -- 37
2019-06-09 15:00:00 20.6 16 Noroeste 35 Oeste 0 -- -- 37
2019-06-09 14:00:00 19.5 12 Oeste 30 Oeste 0 -- -- 38
2019-06-09 13:00:00 18.6 14 Oeste 28 Oeste 0 -- -- 38
2019-06-09 12:00:00 17.2 12 Oeste 20 Oeste 0 -- -- 47
2019-06-09 11:00:00 15.4 7 Noroeste 19 Noroeste 0 -- -- 60
2019-06-09 10:00:00 13.2 13 Oeste 20 Oeste 0 -- -- 67
2019-06-09 09:00:00 11.4 10 Oeste 15 Oeste 0 -- -- 75
2019-06-09 08:00:00 8.3 3 Oeste 6 Oeste 0 -- -- 88
2019-06-09 07:00:00 4.8 0 Calma 4 Oeste 0 -- -- 90
2019-06-09 06:00:00 7.2 5 Oeste 10 Noroeste 0 -- -- 89
2019-06-09 05:00:00 5.9 0 Calma 5 Noroeste 0 -- -- 85
2019-06-09 04:00:00 9.9 3 Oeste 10 Oeste 0 -- -- 72
2019-06-09 03:00:00 10.8 4 Oeste 8 Oeste 0 -- -- 69
2019-06-09 02:00:00 13.3 2 Noroeste 10 Noroeste 0 -- -- 57
2019-06-09 01:00:00 13.7 4 Noroeste 10 Noroeste 0 -- -- 56
2019-06-09 00:00:00 13.2 4 Noroeste 9 Noroeste 0 -- -- 54
2019-06-08 23:00:00 15.1 4 Norte 16 Noroeste 0 -- -- 49
2019-06-08 22:00:00 17.9 6 Noroeste 15 Noroeste 0 -- -- 42
2019-06-08 21:00:00 20 9 Noroeste 24 Noroeste 0 -- -- 35
2019-06-08 20:00:00 21 13 Noroeste 26 Oeste 0 -- -- 33
2019-06-08 19:00:00 22.6 9 Noroeste 21 Noroeste 0 -- -- 29
2019-06-08 18:00:00 23.7 8 Oeste 23 Oeste 0 -- -- 27
2019-06-08 17:00:00 23.7 11 Oeste 21 Sudoeste 0 -- -- 27
2019-06-08 16:00:00 22.4 8 Oeste 20 Sudoeste 0 -- -- 29
2019-06-08 15:00:00 21.8 12 Sudoeste 43 Sur 0 -- -- 29
2019-06-08 14:00:00 20.6 10 Nordeste 32 Este 0 -- -- 37
2019-06-08 13:00:00 18.2 14 Este 25 Este 0 -- -- 43
2019-06-08 12:00:00 16.8 15 Este 26 Nordeste 0 -- -- 47
2019-06-08 11:00:00 14.6 16 Este 27 Nordeste 0 -- -- 53
2019-06-08 10:00:00 12.7 17 Nordeste 25 Nordeste 0 -- -- 62
2019-06-08 09:00:00 9.7 16 Nordeste 27 Nordeste 0 -- -- 72
2019-06-08 08:00:00 7.4 9 Este 21 Este 0 -- -- 79
2019-06-08 07:00:00 5.9 12 Este 23 Este 0 -- -- 85
2019-06-08 06:00:00 5.7 6 Sudeste 14 Sudeste 0 -- -- 83
2019-06-08 05:00:00 6.3 6 Sudeste 21 Nordeste 0 -- -- 79
2019-06-08 04:00:00 7.3 15 Nordeste 23 Nordeste 0 -- -- 78
2019-06-08 03:00:00 6.7 11 Nordeste 17 Este 0 -- -- 81
2019-06-08 02:00:00 5.4 5 Nordeste 9 Norte 0 -- -- 85
2019-06-08 01:00:00 8.6 6 Norte 10 Norte 0 -- -- 70
2019-06-08 00:00:00 8.9 6 Norte 10 Norte 0 -- -- 69
2019-06-07 23:00:00 10.5 4 Norte 11 Noroeste 0 -- -- 63
2019-06-07 22:00:00 12.9 5 Noroeste 18 Noroeste 0 -- -- 53
2019-06-07 21:00:00 15.6 8 Noroeste 21 Oeste 0 -- -- 42
2019-06-07 20:00:00 16.5 11 Noroeste 26 Oeste 0 -- -- 43
2019-06-07 19:00:00 16.9 15 Oeste 27 Noroeste 0 -- -- 41
2019-06-07 18:00:00 15.6 11 Oeste 26 Noroeste 0 -- -- 40
2019-06-07 17:00:00 15.8 10 Noroeste 28 Oeste 0 -- -- 42
2019-06-07 16:00:00 16.2 12 Noroeste 27 Noroeste 0 -- -- 46
2019-06-07 15:00:00 15.6 11 Noroeste 29 Oeste 0 -- -- 48
2019-06-07 14:00:00 14.4 13 Noroeste 26 Oeste 0 -- -- 53
2019-06-07 13:00:00 12.4 15 Oeste 28 Oeste 0 -- -- 60
2019-06-07 12:00:00 10.7 14 Oeste 32 Oeste 0 -- -- 66
2019-06-07 11:00:00 10 12 Noroeste 28 Oeste 0 -- -- 78
2019-06-07 10:00:00 8.9 13 Oeste 31 Oeste 0 -- -- 81
2019-06-07 09:00:00 7.7 11 Oeste 26 Oeste 0 -- -- 91
2019-06-07 08:00:00 6.4 8 Oeste 18 Oeste 0 -- -- 96
2019-06-07 07:00:00 6.1 8 Oeste 22 Oeste 0 -- -- 93
2019-06-07 06:00:00 6.5 7 Oeste 22 Oeste 0 -- -- 94
2019-06-07 05:00:00 7.4 13 Oeste 27 Oeste 0 -- -- 93
2019-06-07 04:00:00 7.3 14 Oeste 33 Sudoeste 0 -- -- 93
2019-06-07 03:00:00 7.3 13 Oeste 26 Oeste 0.4 -- -- 94
2019-06-07 02:00:00 7.5 14 Oeste 33 Oeste 0 -- -- 94
2019-06-07 01:00:00 8.1 15 Oeste 37 Oeste 0 -- -- 91
2019-06-07 00:00:00 8.7 12 Oeste 27 Oeste 0 -- -- 93
2019-06-06 23:00:00 8.7 15 Oeste 42 Oeste 0.4 -- -- 92
2019-06-06 22:00:00 9.7 17 Oeste 54 Oeste 4.2 -- -- 93
2019-06-06 21:00:00 14 30 Sudoeste 71 Sudoeste 0 -- -- 72
2019-06-06 20:00:00 16.2 42 Sudoeste 84 Sur 0 -- -- 55
2019-06-06 19:00:00 16.8 34 Sudoeste 62 Sudoeste 0 -- -- 51
2019-06-06 18:00:00 17.8 35 Sudoeste 64 Sudoeste 0 -- -- 46
2019-06-06 17:00:00 17.6 36 Sudoeste 58 Sudoeste 0 -- -- 46
2019-06-06 16:00:00 18.9 33 Sudoeste 56 Sudoeste 0 -- -- 40
2019-06-06 15:00:00 18.4 29 Sudoeste 54 Sur 0 -- -- 36
2019-06-06 14:00:00 17.1 27 Sudoeste 44 Sudoeste 0 -- -- 38
2019-06-06 13:00:00 15.6 18 Sur 32 Sudoeste 0 -- -- 44
2019-06-06 12:00:00 14.1 18 Sudoeste 33 Sudoeste 0 -- -- 44
2019-06-06 11:00:00 12.3 13 Sudoeste 23 Sudoeste 0 -- -- 53
2019-06-06 10:00:00 10.5 9 Sur 15 Sur 0 -- -- 68
2019-06-06 09:00:00 7.3 4 Sur 8 Sudeste 0 -- -- 79
2019-06-06 08:00:00 4.1 0 Calma 4 Nordeste 0 -- -- 92
2019-06-06 07:00:00 0.8 2 Este 6 Sudeste 0 -- -- 92
2019-06-06 06:00:00 1.1 0 Calma 4 Sudeste 0 -- -- 91
2019-06-06 05:00:00 1.5 2 Este 8 Oeste 0 -- -- 91
2019-06-06 04:00:00 1.9 3 Noroeste 7 Oeste 0 -- -- 88
2019-06-06 03:00:00 2.5 0 Calma 4 Oeste 0 -- -- 83
2019-06-06 02:00:00 7 2 Sudoeste 8 Oeste 0 -- -- 67
2019-06-06 01:00:00 8.9 4 Noroeste 17 Noroeste 0 -- -- 63
2019-06-06 00:00:00 10.3 10 Noroeste 21 Oeste 0 -- -- 59
2019-06-05 23:00:00 11.5 13 Noroeste 25 Noroeste 0 -- -- 53
2019-06-05 22:00:00 12.5 12 Noroeste 26 Noroeste 0 -- -- 51
2019-06-05 21:00:00 13.8 10 Noroeste 30 Noroeste 0 -- -- 49
2019-06-05 20:00:00 14 13 Noroeste 33 Noroeste 0 -- -- 49
2019-06-05 19:00:00 14.8 16 Noroeste 35 Noroeste 0 -- -- 44
2019-06-05 18:00:00 15.7 15 Noroeste 32 Noroeste 0 -- -- 44
2019-06-05 17:00:00 16 18 Noroeste 42 Noroeste 0 -- -- 43
2019-06-05 16:00:00 15.4 25 Noroeste 42 Noroeste 0 -- -- 50
2019-06-05 15:00:00 15.7 13 Noroeste 36 Noroeste 0 -- -- 46
2019-06-05 14:00:00 14 18 Noroeste 37 Noroeste 0 -- -- 53
2019-06-05 13:00:00 14 17 Noroeste 37 Oeste 0 -- -- 48
2019-06-05 12:00:00 13.5 19 Noroeste 38 Oeste 0 -- -- 52
2019-06-05 11:00:00 11.8 18 Noroeste 36 Noroeste 0 -- -- 59
2019-06-05 10:00:00 11.1 18 Oeste 39 Noroeste 0 -- -- 64
2019-06-05 09:00:00 9.5 20 Noroeste 33 Noroeste 0 -- -- 73
2019-06-05 08:00:00 8.2 14 Oeste 28 Oeste 0 -- -- 81
2019-06-05 07:00:00 7.4 11 Oeste 20 Noroeste 0 -- -- 86
2019-06-05 06:00:00 7.2 9 Oeste 25 Oeste 0 -- -- 86
2019-06-05 05:00:00 7.7 10 Oeste 19 Noroeste 0 -- -- 84
2019-06-05 04:00:00 8.4 9 Oeste 29 Oeste 0 -- -- 79
2019-06-05 03:00:00 9.5 13 Noroeste 28 Noroeste 0 -- -- 71
2019-06-05 02:00:00 10.5 12 Noroeste 26 Oeste 0 -- -- 69
2019-06-05 01:00:00 11.4 13 Noroeste 30 Noroeste 0 -- -- 66
2019-06-05 00:00:00 12.5 14 Noroeste 36 Noroeste 0 -- -- 64
2019-06-04 23:00:00 14.1 19 Noroeste 39 Oeste 0 -- -- 54
2019-06-04 22:00:00 15.3 18 Noroeste 33 Oeste 0 -- -- 48
2019-06-04 21:00:00 15.7 13 Oeste 30 Noroeste 0 -- -- 53
2019-06-04 20:00:00 17.2 17 Oeste 41 Noroeste 0 -- -- 53
2019-06-04 19:00:00 17.7 22 Oeste 39 Oeste 0 -- -- 53
2019-06-04 18:00:00 18.7 19 Noroeste 38 Oeste 0 -- -- 52
2019-06-04 17:00:00 16.8 20 Noroeste 40 Oeste 0 -- -- 62
2019-06-04 16:00:00 18 24 Noroeste 42 Noroeste 0 -- -- 66
2019-06-04 15:00:00 21.8 21 Oeste 34 Oeste 0 -- -- 47
2019-06-04 14:00:00 21.1 19 Oeste 39 Sudoeste 0 -- -- 50
2019-06-04 13:00:00 19.9 15 Oeste 34 Oeste 0 -- -- 52
2019-06-04 12:00:00 18.5 17 Oeste 29 Oeste 0 -- -- 56
2019-06-04 11:00:00 15.8 17 Oeste 30 Oeste 0 -- -- 65
2019-06-04 10:00:00 13.8 16 Oeste 32 Sudoeste 0 -- -- 73
2019-06-04 09:00:00 13.7 13 Oeste 22 Oeste 0 -- -- 77
2019-06-04 08:00:00 11.4 6 Oeste 12 Sudoeste 0 -- -- 89
2019-06-04 07:00:00 10.3 4 Sudoeste 17 Oeste 0 -- -- 91
2019-06-04 06:00:00 11.3 7 Oeste 15 Oeste 0 -- -- 89
2019-06-04 05:00:00 12.1 8 Oeste 18 Oeste 0 -- -- 88
2019-06-04 04:00:00 12.8 7 Oeste 17 Oeste 0 -- -- 87
2019-06-04 03:00:00 14 9 Oeste 19 Sudoeste 0 -- -- 82
2019-06-04 02:00:00 14.7 8 Oeste 19 Oeste 0 -- -- 79
2019-06-04 01:00:00 16.2 13 Oeste 26 Oeste 0 -- -- 71
2019-06-04 00:00:00 17.9 12 Oeste 28 Oeste 0 -- -- 68
2019-06-03 23:00:00 19.7 14 Oeste 25 Noroeste 0 -- -- 63
2019-06-03 22:00:00 21.8 14 Oeste 34 Oeste 0 -- -- 56
2019-06-03 21:00:00 24.4 19 Oeste 34 Oeste 0 -- -- 47
2019-06-03 20:00:00 27 18 Oeste 33 Oeste 0 -- -- 39
2019-06-03 19:00:00 28.2 17 Oeste 36 Oeste 0 -- -- 34
2019-06-03 18:00:00 28.5 19 Oeste 41 Sudoeste 0 -- -- 31
2019-06-03 17:00:00 27.9 19 Oeste 41 Oeste 0 -- -- 33
2019-06-03 16:00:00 27.7 20 Oeste 33 Oeste 0 -- -- 31
2019-06-03 15:00:00 27 15 Oeste 32 Oeste 0 -- -- 30
2019-06-03 14:00:00 26.1 12 Oeste 25 Oeste 0 -- -- 33
2019-06-03 13:00:00 24.7 6 Oeste 21 Oeste 0 -- -- 35
2019-06-03 12:00:00 23.1 9 Oeste 21 Oeste 0 -- -- 36
2019-06-03 11:00:00 21.2 5 Oeste 14 Sudoeste 0 -- -- 41
2019-06-03 10:00:00 17.8 6 Oeste 11 Oeste 0 -- -- 52
2019-06-03 09:00:00 15.3 4 Oeste 8 Oeste 0 -- -- 65
2019-06-03 08:00:00 12.2 0 Calma 6 Oeste 0 -- -- 75
2019-06-03 07:00:00 12.2 3 Oeste 10 Noroeste 0 -- -- 65
2019-06-03 06:00:00 14.3 4 Oeste 10 Oeste 0 -- -- 59
2019-06-03 05:00:00 14.2 6 Oeste 11 Oeste 0 -- -- 60
2019-06-03 04:00:00 12.9 0 Calma 3 Oeste 0 -- -- 66
2019-06-03 03:00:00 13.8 0 Calma 3 Nordeste 0 -- -- 65
2019-06-03 02:00:00 14.5 0 Calma 5 Oeste 0 -- -- 58
2019-06-03 01:00:00 16.2 3 Nordeste 5 Nordeste 0 -- -- 52
2019-06-03 00:00:00 19.4 3 Norte 8 Noroeste 0 -- -- 42
2019-06-02 23:00:00 22 5 Noroeste 18 Oeste 0 -- -- 33
2019-06-02 22:00:00 23.9 10 Noroeste 23 Noroeste 0 -- -- 31
2019-06-02 21:00:00 25.3 13 Noroeste 26 Oeste 0 -- -- 28
2019-06-02 20:00:00 27.4 13 Noroeste 32 Oeste 0 -- -- 25
2019-06-02 19:00:00 29.4 18 Oeste 31 Sudoeste 0 -- -- 22
2019-06-02 18:00:00 29.8 12 Oeste 28 Oeste 0 -- -- 22
2019-06-02 17:00:00 30.4 15 Oeste 29 Noroeste 0 -- -- 21
2019-06-02 16:00:00 29.7 12 Noroeste 32 Oeste 0 -- -- 21
2019-06-02 15:00:00 29.9 14 Noroeste 35 Oeste 0 -- -- 20
2019-06-02 14:00:00 29.6 12 Oeste 25 Oeste 0 -- -- 20
2019-06-02 13:00:00 28.3 6 Sudoeste 19 Noroeste 0 -- -- 23
2019-06-02 12:00:00 26.9 9 Noroeste 17 Oeste 0 -- -- 23
2019-06-02 11:00:00 24.5 7 Oeste 13 Oeste 0 -- -- 29
2019-06-02 10:00:00 21 3 Sudoeste 10 Oeste 0 -- -- 42
2019-06-02 09:00:00 16.3 3 Sudeste 8 Sudeste 0 -- -- 52
2019-06-02 08:00:00 11.4 0 Calma 6 Este 0 -- -- 68
2019-06-02 07:00:00 8.8 0 Calma 4 Nordeste 0 -- -- 78
2019-06-02 06:00:00 9.4 4 Nordeste 4 Nordeste 0 -- -- 76
2019-06-02 05:00:00 10.1 2 Nordeste 3 Sudeste 0 -- -- 71
2019-06-02 04:00:00 12.3 2 Este 4 Este 0 -- -- 62
2019-06-02 03:00:00 15.2 0 Calma 6 Noroeste 0 -- -- 54
2019-06-02 02:00:00 18 3 Noroeste 10 Noroeste 0 -- -- 46
2019-06-02 01:00:00 20 3 Noroeste 9 Noroeste 0 -- -- 40
2019-06-02 00:00:00 22 5 Noroeste 10 Noroeste 0 -- -- 36
2019-06-01 23:00:00 24.1 5 Noroeste 19 Noroeste 0 -- -- 33
2019-06-01 22:00:00 26.7 9 Noroeste 23 Noroeste 0 -- -- 30
2019-06-01 21:00:00 30.4 4 Noroeste 15 Noroeste 0 -- -- 23
2019-06-01 20:00:00 31.7 10 Noroeste 26 Noroeste 0 -- -- 22
2019-06-01 19:00:00 32.3 10 Noroeste 23 Oeste 0 -- -- 21
2019-06-01 18:00:00 32.6 12 Oeste 24 Oeste 0 -- -- 21
2019-06-01 17:00:00 32.3 8 Sudoeste 24 Oeste 0 -- -- 21
2019-06-01 16:00:00 32.1 12 Noroeste 26 Oeste 0 -- -- 22
2019-06-01 15:00:00 31.8 12 Noroeste 22 Oeste 0 -- -- 23
2019-06-01 14:00:00 31.2 8 Noroeste 19 Oeste 0 -- -- 19
2019-06-01 13:00:00 29.9 8 Sudoeste 17 Sudoeste 0 -- -- 25
2019-06-01 12:00:00 28.2 5 Oeste 12 Sudoeste 0 -- -- 27
2019-06-01 11:00:00 24.8 3 Sur 8 Oeste 0 -- -- 37
2019-06-01 10:00:00 21.9 2 Sudeste 6 Sudeste 0 -- -- 39
2019-06-01 09:00:00 17.9 4 Sur 6 Este 0 -- -- 47
2019-06-01 08:00:00 11.6 3 Nordeste 6 Nordeste 0 -- -- 71
2019-06-01 07:00:00 8.3 2 Este 5 Este 0 -- -- 74
2019-06-01 06:00:00 8.8 0 Calma 4 Este 0 -- -- 73
2019-06-01 05:00:00 9.8 3 Nordeste 8 Nordeste 0 -- -- 64
2019-06-01 04:00:00 9.7 4 Nordeste 6 Nordeste 0 -- -- 66
2019-06-01 03:00:00 11.1 0 Calma 13 Noroeste 0 -- -- 59
2019-06-01 02:00:00 10.8 3 Nordeste 8 Nordeste 0 -- -- 64
2019-06-01 01:00:00 12.3 2 Nordeste 7 Nordeste 0 -- -- 55
2019-06-01 00:00:00 14.5 5 Nordeste 8 Nordeste 0 -- -- 44
2019-05-31 23:00:00 15.6 6 Nordeste 8 Nordeste 0 -- -- 45
2019-05-31 22:00:00 20.4 3 Nordeste 10 Noroeste 0 -- -- 41
2019-05-31 21:00:00 29.7 3 Noroeste 10 Norte 0 -- -- 21
2019-05-31 20:00:00 30.8 2 Nordeste 19 Noroeste 0 -- -- 20
2019-05-31 19:00:00 31.1 9 Oeste 17 Oeste 0 -- -- 20
2019-05-31 18:00:00 31.3 4 Sur 23 Nordeste 0 -- -- 20
2019-05-31 17:00:00 30.8 8 Norte 23 Nordeste 0 -- -- 20
2019-05-31 16:00:00 30.6 5 Nordeste 26 Norte 0 -- -- 24
2019-05-31 15:00:00 29.4 10 Nordeste 21 Noroeste 0 -- -- 25
2019-05-31 14:00:00 28.4 13 Nordeste 26 Nordeste 0 -- -- 29
2019-05-31 13:00:00 27.7 14 Nordeste 24 Nordeste 0 -- -- 30
2019-05-31 12:00:00 25.9 15 Nordeste 28 Nordeste 0 -- -- 36
2019-05-31 11:00:00 23.4 15 Este 23 Este 0 -- -- 40
2019-05-31 10:00:00 19.9 17 Nordeste 29 Nordeste 0 -- -- 53
2019-05-31 09:00:00 16.6 23 Nordeste 32 Este 0 -- -- 64
2019-05-31 08:00:00 14.4 25 Nordeste 35 Nordeste 0 -- -- 73
2019-05-31 07:00:00 13.5 25 Nordeste 35 Nordeste 0 -- -- 75
2019-05-31 06:00:00 13.1 16 Nordeste 27 Nordeste 0 -- -- 67
2019-05-31 05:00:00 13.1 14 Nordeste 18 Nordeste 0 -- -- 64
2019-05-31 04:00:00 11.6 6 Norte 10 Este 0 -- -- 66
2019-05-31 03:00:00 13.3 6 Este 10 Nordeste 0 -- -- 59
2019-05-31 02:00:00 15.9 3 Sudoeste 9 Este 0 -- -- 46
2019-05-31 01:00:00 18.8 7 Este 13 Este 0 -- -- 39
2019-05-31 00:00:00 19.4 9 Este 19 Este 0 -- -- 39
2019-05-30 23:00:00 20.4 13 Nordeste 19 Este 0 -- -- 37
2019-05-30 22:00:00 21 10 Este 17 Nordeste 0 -- -- 35
2019-05-30 21:00:00 25.5 13 Nordeste 26 Nordeste 0 -- -- 27
2019-05-30 20:00:00 27.4 13 Nordeste 31 Nordeste 0 -- -- 24
2019-05-30 19:00:00 27.9 18 Nordeste 31 Nordeste 0 -- -- 25
2019-05-30 18:00:00 28 15 Este 32 Nordeste 0 -- -- 27
2019-05-30 17:00:00 27.9 16 Nordeste 31 Nordeste 0 -- -- 26
2019-05-30 16:00:00 27.5 17 Este 29 Este 0 -- -- 26
2019-05-30 15:00:00 26.4 12 Nordeste 30 Este 0 -- -- 26
2019-05-30 14:00:00 25.2 14 Este 27 Sudeste 0 -- -- 32
2019-05-30 13:00:00 23.6 17 Este 28 Nordeste 0 -- -- 36
2019-05-30 12:00:00 22 15 Este 27 Este 0 -- -- 40
2019-05-30 11:00:00 20 16 Este 23 Este 0 -- -- 46
2019-05-30 10:00:00 17.3 13 Este 26 Este 0 -- -- 56
2019-05-30 09:00:00 14 12 Nordeste 22 Nordeste 0 -- -- 66
2019-05-30 08:00:00 11.1 17 Nordeste 26 Nordeste 0 -- -- 79
2019-05-30 07:00:00 8.7 14 Nordeste 19 Nordeste 0 -- -- 86
2019-05-30 06:00:00 6.9 8 Nordeste 12 Nordeste 0 -- -- 86
2019-05-30 05:00:00 7.7 3 Este 9 Nordeste 0 -- -- 84
2019-05-30 04:00:00 10.2 2 Este 12 Este 0 -- -- 73
2019-05-30 03:00:00 12.4 5 Este 15 Este 0 -- -- 67
2019-05-30 02:00:00 14.5 8 Este 18 Este 0 -- -- 60
2019-05-30 01:00:00 15.2 10 Este 17 Este 0 -- -- 57
2019-05-30 00:00:00 16.1 10 Este 16 Este 0 -- -- 53
2019-05-29 23:00:00 16.7 6 Este 9 Este 0 -- -- 49
2019-05-29 22:00:00 19.2 7 Este 17 Sudeste 0 -- -- 41
2019-05-29 21:00:00 22 12 Este 27 Este 0 -- -- 36
2019-05-29 20:00:00 23.2 13 Este 31 Este 0 -- -- 34
2019-05-29 19:00:00 23.6 19 Este 32 Este 0 -- -- 36
2019-05-29 18:00:00 24 14 Este 30 Nordeste 0 -- -- 36
2019-05-29 17:00:00 23.3 18 Nordeste 31 Nordeste 0 -- -- 38
2019-05-29 16:00:00 22.8 15 Este 28 Este 0 -- -- 37
2019-05-29 15:00:00 21.4 16 Este 30 Este 0 -- -- 40
2019-05-29 14:00:00 20.4 12 Nordeste 30 Nordeste 0 -- -- 45
2019-05-29 13:00:00 18.7 17 Este 32 Sudeste 0 -- -- 45
2019-05-29 12:00:00 17.1 17 Este 32 Este 0 -- -- 49
2019-05-29 11:00:00 15.5 17 Este 36 Este 0 -- -- 53
2019-05-29 10:00:00 13.5 23 Este 35 Este 0 -- -- 56
2019-05-29 09:00:00 11.5 19 Este 33 Este 0 -- -- 62
2019-05-29 08:00:00 9.3 15 Este 28 Este 0 -- -- 70
2019-05-29 07:00:00 7.4 8 Este 18 Sudeste 0 -- -- 75
2019-05-29 06:00:00 7.6 9 Este 16 Sudeste 0 -- -- 74
2019-05-29 05:00:00 8.5 10 Este 18 Sudeste 0 -- -- 68
2019-05-29 04:00:00 8.8 9 Este 16 Este 0 -- -- 64
2019-05-29 03:00:00 9.2 8 Este 18 Este 0 -- -- 62
2019-05-29 02:00:00 10.8 10 Este 19 Este 0 -- -- 57
2019-05-29 01:00:00 12.4 12 Este 26 Este 0 -- -- 57
2019-05-29 00:00:00 14.5 21 Este 41 Este 0 -- -- 52
2019-05-28 23:00:00 16.2 26 Nordeste 42 Este 0 -- -- 43
2019-05-28 22:00:00 18 21 Nordeste 36 Nordeste 0 -- -- 40
2019-05-28 21:00:00 21.2 12 Este 21 Este 0 -- -- 32
2019-05-28 20:00:00 22.7 9 Nordeste 22 Este 0 -- -- 30
2019-05-28 19:00:00 23.3 11 Nordeste 31 Nordeste 0 -- -- 30
2019-05-28 18:00:00 23.2 17 Nordeste 33 Nordeste 0 -- -- 33
2019-05-28 17:00:00 22.8 19 Nordeste 31 Este 0 -- -- 31
2019-05-28 16:00:00 21.8 12 Nordeste 29 Este 0 -- -- 34
2019-05-28 15:00:00 20.9 14 Nordeste 30 Este 0 -- -- 35
2019-05-28 14:00:00 19.7 18 Nordeste 28 Este 0 -- -- 39
2019-05-28 13:00:00 18.1 15 Este 31 Este 0 -- -- 46
2019-05-28 12:00:00 16.6 19 Nordeste 36 Nordeste 0 -- -- 48
2019-05-28 11:00:00 15 18 Este 30 Este 0 -- -- 53
2019-05-28 10:00:00 13.2 15 Este 27 Este 0 -- -- 59
2019-05-28 09:00:00 11.1 16 Este 30 Este 0 -- -- 67
2019-05-28 08:00:00 9.2 10 Este 21 Nordeste 0 -- -- 76
2019-05-28 07:00:00 7.4 10 Nordeste 18 Este 0 -- -- 85
2019-05-28 06:00:00 8.3 10 Este 21 Nordeste 0 -- -- 82
2019-05-28 05:00:00 9 11 Este 18 Este 0 -- -- 81
2019-05-28 04:00:00 10.6 14 Este 24 Este 0 -- -- 76
2019-05-28 03:00:00 11.6 13 Este 23 Este 0 -- -- 74
2019-05-28 02:00:00 13 10 Este 33 Este 0 -- -- 73
2019-05-28 01:00:00 14.2 24 Nordeste 39 Nordeste 0 -- -- 71
2019-05-28 00:00:00 16.8 21 Nordeste 37 Nordeste 0 -- -- 57
2019-05-27 23:00:00 19.4 18 Nordeste 31 Nordeste 0 -- -- 45
2019-05-27 22:00:00 21.3 7 Noroeste 28 Oeste 0 -- -- 48
2019-05-27 21:00:00 24.1 14 Oeste 26 Oeste 0 -- -- 42
2019-05-27 20:00:00 25.9 12 Noroeste 22 Norte 0 -- -- 34
2019-05-27 19:00:00 25.8 9 Noroeste 21 Oeste 0 -- -- 33
2019-05-27 18:00:00 26.3 8 Oeste 23 Oeste 0 -- -- 33
2019-05-27 17:00:00 25.2 8 Nordeste 23 Oeste 0 -- -- 35
2019-05-27 16:00:00 25.8 8 Noroeste 24 Norte 0 -- -- 34
2019-05-27 15:00:00 24.2 7 Norte 20 Noroeste 0 -- -- 40
2019-05-27 14:00:00 23.3 9 Noroeste 18 Norte 0 -- -- 43
2019-05-27 13:00:00 22.9 8 Noroeste 17 Nordeste 0.2 -- -- 41
2019-05-27 12:00:00 21.9 6 Sudeste 17 Nordeste 0 -- -- 48
2019-05-27 11:00:00 20.3 7 Sudeste 17 Sudeste 0 -- -- 48
2019-05-27 10:00:00 18.4 10 Este 18 Este 0 -- -- 51
2019-05-27 09:00:00 15.8 6 Este 12 Este 0 -- -- 61
2019-05-27 08:00:00 11.9 7 Este 13 Nordeste 0 -- -- 75
2019-05-27 07:00:00 10.3 8 Este 12 Este 0 -- -- 77
2019-05-27 06:00:00 12.1 6 Este 17 Nordeste 0 -- -- 69
2019-05-27 05:00:00 13.3 11 Este 18 Este 0 -- -- 68
2019-05-27 04:00:00 14.5 9 Este 21 Este 0 -- -- 65
2019-05-27 03:00:00 14.5 2 Sudeste 14 Sudeste 0 -- -- 65
2019-05-27 02:00:00 13.3 6 Sudeste 10 Sudeste 0 -- -- 72
2019-05-27 01:00:00 17.4 3 Noroeste 12 Noroeste 0 -- -- 56
2019-05-27 00:00:00 18.4 5 Noroeste 12 Noroeste 0 -- -- 54
2019-05-26 23:00:00 20.2 4 Noroeste 9 Noroeste 0 -- -- 50
2019-05-26 22:00:00 22.5 4 Oeste 13 Noroeste 0 -- -- 43
2019-05-26 21:00:00 25.3 8 Noroeste 21 Noroeste 0 -- -- 36
2019-05-26 20:00:00 26.5 4 Noroeste 13 Norte 0 -- -- 33
2019-05-26 19:00:00 26.6 10 Norte 27 Norte 0 -- -- 30
2019-05-26 18:00:00 26.3 10 Norte 27 Nordeste 0 -- -- 31
2019-05-26 17:00:00 25.3 16 Nordeste 28 Nordeste 0 -- -- 34
2019-05-26 16:00:00 24.6 13 Nordeste 32 Nordeste 0 -- -- 36
2019-05-26 15:00:00 23.3 13 Nordeste 28 Norte 0 -- -- 40
2019-05-26 14:00:00 21.1 13 Este 24 Nordeste 0 -- -- 47
2019-05-26 13:00:00 19.9 10 Este 22 Nordeste 0 -- -- 52
2019-05-26 12:00:00 18.1 11 Nordeste 20 Nordeste 0 -- -- 54
2019-05-26 11:00:00 16.7 8 Nordeste 18 Este 0 -- -- 58
2019-05-26 10:00:00 14.2 10 Sudeste 21 Sudeste 0 -- -- 63
2019-05-26 09:00:00 12 12 Sudeste 19 Sudeste 0 -- -- 70
2019-05-26 08:00:00 8.6 7 Este 12 Este 0 -- -- 81
2019-05-26 07:00:00 4.4 5 Este 9 Nordeste 0 -- -- 90
2019-05-26 06:00:00 5.8 4 Este 9 Este 0 -- -- 85
2019-05-26 05:00:00 6.5 6 Nordeste 10 Este 0 -- -- 83
2019-05-26 04:00:00 7 8 Nordeste 12 Este 0 -- -- 81
2019-05-26 03:00:00 9.9 4 Sudeste 12 Este 0 -- -- 70
2019-05-26 02:00:00 11.2 4 Este 16 Este 0 -- -- 67
2019-05-26 01:00:00 12.2 10 Este 17 Este 0 -- -- 66
2019-05-26 00:00:00 9.8 8 Este 12 Este 0 -- -- 69
2019-05-25 23:00:00 10.6 6 Nordeste 7 Nordeste 0 -- -- 64
2019-05-25 22:00:00 15.1 0 Calma 11 Nordeste 0 -- -- 49
2019-05-25 21:00:00 20.2 5 Este 21 Nordeste 0 -- -- 36
2019-05-25 20:00:00 21.3 8 Nordeste 27 Nordeste 0 -- -- 35
2019-05-25 19:00:00 21.6 13 Nordeste 35 Nordeste 0 -- -- 34
2019-05-25 18:00:00 21.3 16 Nordeste 32 Nordeste 0 -- -- 33
2019-05-25 17:00:00 21.5 15 Nordeste 30 Nordeste 0 -- -- 36
2019-05-25 16:00:00 20.3 19 Nordeste 32 Nordeste 0 -- -- 40
2019-05-25 15:00:00 19.4 18 Nordeste 31 Nordeste 0 -- -- 45
2019-05-25 14:00:00 18.4 21 Nordeste 36 Nordeste 0 -- -- 47
2019-05-25 13:00:00 16.9 21 Nordeste 33 Nordeste 0 -- -- 51
2019-05-25 12:00:00 16 19 Este 33 Nordeste 0 -- -- 54
2019-05-25 11:00:00 14.6 18 Este 33 Sudeste 0 -- -- 60
2019-05-25 10:00:00 13.2 21 Este 32 Este 0 -- -- 64
2019-05-25 09:00:00 11.6 16 Este 28 Este 0 -- -- 72
2019-05-25 08:00:00 7.9 6 Este 12 Nordeste 0 -- -- 86
2019-05-25 07:00:00 6 0 Calma 13 Este 0 -- -- 87
2019-05-25 06:00:00 6.9 9 Nordeste 20 Nordeste 0 -- -- 87
2019-05-25 05:00:00 8.6 14 Este 22 Este 0 -- -- 82
2019-05-25 04:00:00 8.7 8 Este 23 Este 0 -- -- 81
2019-05-25 03:00:00 9.4 15 Este 30 Este 0 -- -- 78
2019-05-25 02:00:00 9.9 9 Este 26 Este 0 -- -- 74
2019-05-25 01:00:00 11.3 17 Este 38 Este 0 -- -- 68
2019-05-25 00:00:00 12.6 19 Este 37 Este 0 -- -- 58
2019-05-24 23:00:00 14.2 20 Este 39 Este 0 -- -- 55
2019-05-24 22:00:00 16.7 25 Este 45 Nordeste 0 -- -- 46
2019-05-24 21:00:00 18.6 24 Nordeste 36 Nordeste 0 -- -- 36
2019-05-24 20:00:00 20.2 23 Nordeste 43 Este 0 -- -- 32
2019-05-24 19:00:00 21.1 23 Nordeste 39 Este 0 -- -- 31
2019-05-24 18:00:00 21.8 20 Nordeste 33 Nordeste 0 -- -- 29
2019-05-24 17:00:00 21.6 16 Nordeste 37 Nordeste 0 -- -- 30
2019-05-24 16:00:00 20.9 21 Nordeste 40 Nordeste 0 -- -- 30
2019-05-24 15:00:00 19.9 17 Nordeste 33 Nordeste 0 -- -- 41
2019-05-24 14:00:00 18.7 19 Nordeste 30 Nordeste 0 -- -- 41
2019-05-24 13:00:00 17.3 17 Este 32 Este 0 -- -- 49
2019-05-24 12:00:00 16 21 Nordeste 35 Nordeste 0 -- -- 51
2019-05-24 11:00:00 14.9 23 Nordeste 38 Nordeste 0 -- -- 52
2019-05-24 10:00:00 12.9 28 Nordeste 39 Nordeste 0 -- -- 54
2019-05-24 09:00:00 11.3 24 Nordeste 35 Nordeste 0 -- -- 66
2019-05-24 08:00:00 9.2 18 Nordeste 27 Nordeste 0 -- -- 83
2019-05-24 07:00:00 7.4 4 Nordeste 9 Este 0 -- -- 92
2019-05-24 06:00:00 8.5 7 Nordeste 10 Nordeste 0 -- -- 91
2019-05-24 05:00:00 8.1 3 Nordeste 4 Nordeste 0 -- -- 83
2019-05-24 04:00:00 10.6 3 Nordeste 9 Norte 0 -- -- 74
2019-05-24 03:00:00 11 5 Norte 10 Noroeste 0 -- -- 71
2019-05-24 02:00:00 11.7 6 Noroeste 11 Norte 0 -- -- 68
2019-05-24 01:00:00 10.3 4 Norte 6 Noroeste 0 -- -- 72
2019-05-24 00:00:00 14.1 3 Noroeste 16 Norte 0 -- -- 59
2019-05-23 23:00:00 15.7 7 Noroeste 21 Noroeste 0 -- -- 55
2019-05-23 22:00:00 17.2 12 Noroeste 27 Noroeste 0 -- -- 52
2019-05-23 21:00:00 19.3 18 Noroeste 37 Noroeste 0 -- -- 52
2019-05-23 20:00:00 21.7 17 Noroeste 36 Oeste 0 -- -- 46
2019-05-23 19:00:00 23.7 19 Oeste 30 Oeste 0 -- -- 36
2019-05-23 18:00:00 23.8 14 Oeste 28 Oeste 0 -- -- 32
2019-05-23 17:00:00 24.2 17 Oeste 35 Oeste 0 -- -- 30
2019-05-23 16:00:00 24 19 Oeste 37 Noroeste 0 -- -- 36
2019-05-23 15:00:00 23.8 12 Noroeste 28 Noroeste 0 -- -- 38
2019-05-23 14:00:00 22.6 10 Noroeste 22 Oeste 0 -- -- 43
2019-05-23 13:00:00 20.9 13 Oeste 24 Oeste 0 -- -- 52
2019-05-23 12:00:00 19.4 14 Oeste 25 Oeste 0 -- -- 56
2019-05-23 11:00:00 17.6 10 Oeste 17 Noroeste 0 -- -- 66
2019-05-23 10:00:00 14.3 7 Oeste 12 Oeste 0 -- -- 78
2019-05-23 09:00:00 12.1 0 Calma 5 Sudeste 0 -- -- 90
2019-05-23 08:00:00 10.1 2 Sur 4 Sur 0 -- -- 95
2019-05-23 07:00:00 9.4 0 Calma 3 Sudeste 0 -- -- 93
2019-05-23 06:00:00 9.7 2 Sudeste 6 Sudeste 0 -- -- 95
2019-05-23 05:00:00 8 0 Calma 3 Nordeste 0 -- -- 91
2019-05-23 04:00:00 9.9 0 Calma 8 Oeste 0 -- -- 87
2019-05-23 03:00:00 11.2 0 Calma 8 Noroeste 0 -- -- 81
2019-05-23 02:00:00 15.1 5 Oeste 10 Oeste 0 -- -- 70
2019-05-23 01:00:00 15.3 5 Oeste 9 Noroeste 0 -- -- 66
2019-05-23 00:00:00 15 0 Calma 11 Oeste 0 -- -- 58
2019-05-22 23:00:00 11.9 0 Calma 4 Norte 0 -- -- 69
2019-05-22 22:00:00 17.2 3 Norte 9 Noroeste 0 -- -- 54
2019-05-22 21:00:00 23.5 7 Noroeste 19 Noroeste 0 -- -- 32
2019-05-22 20:00:00 25.1 9 Noroeste 27 Oeste 0 -- -- 31
2019-05-22 19:00:00 25.9 8 Noroeste 25 Oeste 0 -- -- 30
2019-05-22 18:00:00 25.7 9 Oeste 30 Oeste 0 -- -- 31
2019-05-22 17:00:00 25.4 5 Sudeste 23 Noroeste 0 -- -- 32
2019-05-22 16:00:00 24.9 5 Noroeste 26 Oeste 0 -- -- 31
2019-05-22 15:00:00 24.4 7 Oeste 20 Oeste 0 -- -- 32
2019-05-22 14:00:00 23.9 6 Noroeste 18 Oeste 0 -- -- 32
2019-05-22 13:00:00 22 4 Norte 13 Nordeste 0 -- -- 43
2019-05-22 12:00:00 20 5 Sudoeste 13 Nordeste 0 -- -- 48
2019-05-22 11:00:00 17.8 6 Este 13 Nordeste 0 -- -- 55
2019-05-22 10:00:00 15 8 Nordeste 14 Nordeste 0 -- -- 65
2019-05-22 09:00:00 12.1 8 Este 29 Nordeste 0 -- -- 73
2019-05-22 08:00:00 9.5 21 Nordeste 30 Nordeste 0 -- -- 83
2019-05-22 07:00:00 8.9 22 Nordeste 32 Nordeste 0 -- -- 84
2019-05-22 06:00:00 9.2 19 Nordeste 26 Nordeste 0 -- -- 77
2019-05-22 05:00:00 9.9 17 Nordeste 23 Nordeste 0 -- -- 70
2019-05-22 04:00:00 6.6 8 Nordeste 13 Nordeste 0 -- -- 79
2019-05-22 03:00:00 7.8 0 Calma 10 Sudeste 0 -- -- 73
2019-05-22 02:00:00 10.1 3 Este 13 Sudeste 0 -- -- 65
2019-05-22 01:00:00 7.4 5 Este 13 Este 0 -- -- 77
2019-05-22 00:00:00 7.6 4 Nordeste 8 Nordeste 0 -- -- 77
2019-05-21 23:00:00 9.6 2 Nordeste 4 Nordeste 0 -- -- 71
2019-05-21 22:00:00 12.6 3 Norte 9 Noroeste 0 -- -- 62
2019-05-21 21:00:00 21 4 Noroeste 15 Norte 0 -- -- 33
2019-05-21 20:00:00 22.2 4 Nordeste 14 Norte 0 -- -- 32
2019-05-21 19:00:00 22.2 8 Nordeste 18 Norte 0 -- -- 32
2019-05-21 18:00:00 21.7 9 Norte 20 Nordeste 0 -- -- 32
2019-05-21 17:00:00 21.8 8 Este 22 Nordeste 0 -- -- 34
2019-05-21 16:00:00 21.4 8 Norte 20 Nordeste 0 -- -- 36
2019-05-21 15:00:00 20.8 11 Nordeste 22 Este 0 -- -- 39
2019-05-21 14:00:00 19.6 8 Oeste 21 Nordeste 0 -- -- 42
2019-05-21 13:00:00 18.7 8 Nordeste 18 Nordeste 0 -- -- 48
2019-05-21 12:00:00 16.9 8 Norte 23 Nordeste 0 -- -- 54
2019-05-21 11:00:00 14.6 12 Nordeste 19 Nordeste 0 -- -- 62
2019-05-21 10:00:00 12.4 9 Nordeste 17 Nordeste 0 -- -- 69
2019-05-21 09:00:00 9.7 13 Nordeste 20 Nordeste 0 -- -- 84
2019-05-21 08:00:00 5.4 0 Calma 5 Nordeste 0 -- -- 96
2019-05-21 07:00:00 2.3 0 Calma 5 Nordeste 0 -- -- 96
2019-05-21 06:00:00 2.5 0 Calma 5 Nordeste 0 -- -- 93
2019-05-21 05:00:00 4.1 0 Calma 8 Norte 0 -- -- 90
2019-05-21 04:00:00 3 2 Noroeste 4 Noroeste 0 -- -- 92
2019-05-21 03:00:00 6.2 3 Noroeste 8 Noroeste 0 -- -- 81
2019-05-21 02:00:00 4.2 0 Calma 3 Oeste 0 -- -- 85
2019-05-21 01:00:00 8.3 2 Noroeste 6 Noroeste 0 -- -- 68
2019-05-21 00:00:00 10.5 4 Norte 9 Noroeste 0 -- -- 62